Time;durP1;ratioP1;P1;durP2;ratioP2;P2;SDS_P1;SDS_P2;PMS_P1;PMS_P2;Temp;Humidity;BMP_temperature;BMP_pressure;BME280_temperature;BME280_humidity;BME280_pressure;Samples;Min_cycle;Max_cycle;Signal;HPM_P1;HPM_P2
2021/08/15 00:02:19;;;;;;;18.40;6.13;;;;;;;14.69;92.69;101199.34;5090462;28;20434;-68
2021/08/15 00:04:44;;;;;;;18.43;6.40;;;;;;;14.71;92.24;101198.16;5072325;28;20440;-68
2021/08/15 00:07:09;;;;;;;20.63;6.43;;;;;;;14.73;92.47;101201.50;5090287;28;20036;-68
2021/08/15 00:09:35;;;;;;;18.13;7.23;;;;;;;14.71;92.79;101195.47;5090275;28;20042;-68
2021/08/15 00:12:04;;;;;;;12.03;5.93;;;;;;;14.67;92.98;101172.66;5090286;28;20122;-68
2021/08/15 00:14:29;;;;;;;25.63;7.60;;;;;;;14.69;92.79;101181.38;5089924;28;20036;-68
2021/08/15 00:16:54;;;;;;;22.20;6.07;;;;;;;14.65;93.13;101168.47;5090113;28;20097;-68
2021/08/15 00:19:20;;;;;;;16.80;6.03;;;;;;;14.78;92.59;101168.72;5090063;28;20024;-68
2021/08/15 00:21:45;;;;;;;23.40;7.17;;;;;;;14.76;92.53;101171.56;5090181;28;20449;-68
2021/08/15 00:24:10;;;;;;;21.77;6.13;;;;;;;14.68;92.72;101174.34;5072100;28;20032;-68
2021/08/15 00:26:36;;;;;;;20.07;9.03;;;;;;;14.67;93.12;101171.81;5072090;28;20107;-68
2021/08/15 00:29:02;;;;;;;14.93;6.27;;;;;;;14.71;92.70;101163.22;5089979;28;20070;-68
2021/08/15 00:31:28;;;;;;;13.40;5.90;;;;;;;14.66;93.47;101160.25;5089927;28;20046;-68
2021/08/15 00:33:54;;;;;;;38.92;7.40;;;;;;;14.64;93.54;101148.00;5071784;28;20040;-68
2021/08/15 00:36:20;;;;;;;28.75;6.75;;;;;;;14.63;93.52;101143.63;5055169;28;20040;-70
2021/08/15 00:38:45;;;;;;;14.20;6.00;;;;;;;14.58;93.98;101138.78;5090084;28;20411;-68
2021/08/15 00:41:12;;;;;;;18.27;6.50;;;;;;;14.59;94.33;101145.03;5089631;28;20047;-68
2021/08/15 00:43:38;;;;;;;23.50;6.93;;;;;;;14.60;93.99;101155.56;5089164;28;20043;-68
2021/08/15 00:46:11;;;;;;;15.57;6.17;;;;;;;14.56;93.98;101148.88;5071190;28;20036;-68
2021/08/15 00:48:36;;;;;;;18.77;6.95;;;;;;;14.59;93.71;101158.47;5072102;28;20078;-68
2021/08/15 00:51:02;;;;;;;25.45;6.43;;;;;;;14.58;93.90;101157.59;5089447;28;20027;-68
2021/08/15 00:53:35;;;;;;;16.05;5.15;;;;;;;14.54;93.98;101153.63;5071731;28;20032;-68
2021/08/15 00:56:06;;;;;;;23.63;7.18;;;;;;;14.60;94.09;101152.88;5070844;28;20036;-68
2021/08/15 00:58:33;;;;;;;19.80;6.68;;;;;;;14.68;93.64;101151.97;5054897;28;20142;-67
2021/08/15 01:01:02;;;;;;;18.55;5.93;;;;;;;14.64;94.23;101142.63;5071230;28;20092;-68
2021/08/15 01:03:29;;;;;;;17.63;6.30;;;;;;;14.67;94.21;101145.78;5089196;28;20127;-68
2021/08/15 01:05:54;;;;;;;;;;;;;;;14.67;94.04;101139.56;5088993;28;20082;-68
2021/08/15 01:08:20;;;;;;;;;;;;;;;14.65;93.97;101136.22;5071787;28;19947;-68
2021/08/15 01:10:45;;;;;;;17.30;6.47;;;;;;;14.62;94.03;101140.13;5088902;28;19911;-68
2021/08/15 01:13:11;;;;;;;17.97;6.97;;;;;;;14.62;94.14;101148.19;5071170;28;20044;-68
2021/08/15 01:15:37;;;;;;;16.03;5.70;;;;;;;14.57;94.42;101139.81;5088774;28;20285;-68
2021/08/15 01:18:16;;;;;;;;;;;;;;;14.55;94.90;101141.84;5071359;28;20024;-68
2021/08/15 01:20:41;;;;;;;20.95;7.38;;;;;;;14.56;94.37;101138.13;5070877;28;19965;-68
2021/08/15 01:23:06;;;;;;;18.03;6.27;;;;;;;14.58;94.20;101136.09;5088799;28;20341;-68
2021/08/15 01:25:32;;;;;;;35.60;7.97;;;;;;;14.56;94.60;101143.50;5070823;28;20557;-69
2021/08/15 01:27:57;;;;;;;14.57;7.53;;;;;;;14.62;94.58;101142.81;5088411;28;20483;-68
2021/08/15 01:30:26;;;;;;;14.27;6.37;;;;;;;14.58;94.44;101141.47;5071104;28;20280;-68
2021/08/15 01:32:51;;;;;;;12.95;6.15;;;;;;;14.57;94.64;101135.28;5087693;28;20139;-68
2021/08/15 01:35:16;;;;;;;18.77;7.40;;;;;;;14.52;94.52;101124.22;5070872;28;20217;-68
2021/08/15 01:37:42;;;;;;;21.37;7.43;;;;;;;14.51;94.55;101119.00;5053784;28;20035;-68
2021/08/15 01:40:08;;;;;;;23.60;7.80;;;;;;;14.54;94.75;101107.94;5070712;28;20040;-68
2021/08/15 01:42:33;;;;;;;18.70;6.18;;;;;;;14.48;94.65;101097.88;5088301;28;20047;-68
2021/08/15 01:44:59;;;;;;;20.17;7.40;;;;;;;14.52;94.86;101115.31;5087952;28;20032;-68
2021/08/15 01:47:28;;;;;;;20.10;6.87;;;;;;;14.55;94.71;101115.81;5088196;28;20082;-68
2021/08/15 01:49:53;;;;;;;21.60;7.22;;;;;;;14.48;94.87;101116.69;5088621;28;20445;-68
2021/08/15 01:52:19;;;;;;;24.63;8.20;;;;;;;14.48;94.87;101122.06;5070266;28;20020;-68
2021/08/15 01:54:44;;;;;;;23.60;6.47;;;;;;;14.49;95.04;101115.66;5053778;28;20360;-68
2021/08/15 01:57:10;;;;;;;12.87;7.30;;;;;;;14.46;95.36;101113.34;5087946;28;20047;-68
2021/08/15 01:59:35;;;;;;;20.33;7.47;;;;;;;14.42;95.58;101114.69;5088560;28;20102;-69
2021/08/15 02:02:01;;;;;;;21.83;6.60;;;;;;;14.44;95.68;101110.00;5088333;28;20036;-68
2021/08/15 02:04:26;;;;;;;22.13;7.27;;;;;;;14.51;95.21;101106.41;5070376;28;20101;-68
2021/08/15 02:06:51;;;;;;;15.30;6.53;;;;;;;14.48;95.49;101093.34;5070282;28;20769;-68
2021/08/15 02:09:17;;;;;;;21.67;7.50;;;;;;;14.48;95.72;101100.56;5053558;28;20031;-68
2021/08/15 02:11:42;;;;;;;23.97;7.13;;;;;;;14.55;95.26;101098.84;5088169;28;20036;-69
2021/08/15 02:14:08;;;;;;;20.67;7.27;;;;;;;14.52;95.16;101093.81;5087936;28;20032;-68
2021/08/15 02:16:33;;;;;;;22.08;8.20;;;;;;;14.52;95.51;101100.03;5087987;28;20046;-68
2021/08/15 02:18:58;;;;;;;17.40;7.67;;;;;;;14.51;95.96;101108.25;5088106;28;20051;-68
2021/08/15 02:21:24;;;;;;;24.77;6.67;;;;;;;14.55;95.50;101102.38;5053780;28;20069;-68
2021/08/15 02:23:49;;;;;;;24.37;8.10;;;;;;;14.61;95.30;101114.28;5087792;28;20036;-69
2021/08/15 02:26:14;;;;;;;18.40;6.57;;;;;;;14.61;95.04;101108.03;5070022;28;20036;-68
2021/08/15 02:28:40;;;;;;;18.07;7.17;;;;;;;14.57;95.02;101102.22;5053514;28;20043;-68
2021/08/15 02:31:05;;;;;;;22.93;6.87;;;;;;;14.59;95.24;101100.19;5070472;28;20024;-68
2021/08/15 02:33:30;;;;;;;16.83;6.50;;;;;;;14.66;94.87;101095.75;5087951;28;20473;-68
2021/08/15 02:35:57;;;;;;;15.93;7.80;;;;;;;14.67;94.50;101105.47;5069891;28;20088;-68
2021/08/15 02:38:23;;;;;;;18.75;7.47;;;;;;;14.69;94.86;101106.13;5087991;28;20380;-68
2021/08/15 02:40:48;;;;;;;22.92;8.90;;;;;;;14.68;95.20;101104.47;5070162;28;20721;-68
2021/08/15 02:43:13;;;;;;;21.90;8.27;;;;;;;14.72;95.21;101105.75;5087892;28;20043;-68
2021/08/15 02:45:39;;;;;;;20.90;6.97;;;;;;;14.71;94.95;101101.41;5087562;28;20727;-69
2021/08/15 02:48:04;;;;;;;22.77;7.90;;;;;;;14.72;94.93;101103.06;5069833;28;20486;-68
2021/08/15 02:50:30;;;;;;;16.75;7.13;;;;;;;14.70;94.63;101091.69;5087817;28;20119;-68
2021/08/15 02:52:55;;;;;;;18.07;6.70;;;;;;;14.69;95.24;101094.56;5087786;28;20152;-68
2021/08/15 02:55:20;;;;;;;19.80;7.30;;;;;;;14.69;95.65;101075.75;5087530;28;20040;-69
2021/08/15 02:57:46;;;;;;;22.10;7.27;;;;;;;14.74;95.30;101082.22;5090913;28;20032;-68
2021/08/15 03:00:12;;;;;;;27.70;8.10;;;;;;;14.74;95.09;101087.59;5091481;28;20028;-68
2021/08/15 03:02:37;;;;;;;17.60;6.88;;;;;;;14.77;94.77;101081.03;5091343;28;20036;-68
2021/08/15 03:05:05;;;;;;;14.63;7.97;;;;;;;14.74;95.03;101084.09;5091229;28;20143;-68
2021/08/15 03:07:30;;;;;;;18.13;6.13;;;;;;;14.74;95.39;101076.84;5091245;28;20020;-68
2021/08/15 03:09:55;;;;;;;14.47;6.30;;;;;;;14.75;95.73;101077.72;5091448;28;20032;-69
2021/08/15 03:12:21;;;;;;;23.07;6.47;;;;;;;14.75;95.55;101073.16;5091146;28;20169;-68
2021/08/15 03:14:46;;;;;;;18.40;6.67;;;;;;;14.77;95.12;101068.44;5091303;28;20055;-68
2021/08/15 03:17:12;;;;;;;28.60;8.77;;;;;;;14.67;96.25;101080.47;5090761;28;20036;-68
2021/08/15 03:19:37;;;;;;;18.27;7.40;;;;;;;14.59;96.55;101073.31;5073007;28;20040;-69
2021/08/15 03:22:07;;;;;;;20.47;7.13;;;;;;;14.59;96.89;101072.47;5090760;28;20028;-69
2021/08/15 03:24:33;;;;;;;13.25;6.47;;;;;;;14.56;96.31;101073.66;5090981;28;20286;-69
2021/08/15 03:26:58;;;;;;;18.55;7.43;;;;;;;14.57;96.58;101075.34;5072847;28;20038;-69
2021/08/15 03:29:23;;;;;;;14.60;5.87;;;;;;;14.53;96.70;101071.31;5073318;28;20124;-69
2021/08/15 03:31:49;;;;;;;14.70;6.53;;;;;;;14.54;97.06;101071.16;5072751;28;20044;-69
2021/08/15 03:34:19;;;;;;;21.27;7.40;;;;;;;14.47;97.69;101058.56;5090906;28;20024;-69
2021/08/15 03:36:45;;;;;;;20.35;7.28;;;;;;;14.40;98.19;101046.88;5090372;28;20044;-69
2021/08/15 03:39:11;;;;;;;22.48;8.32;;;;;;;14.27;99.05;101047.50;5073121;28;20063;-70
2021/08/15 03:41:36;;;;;;;17.57;6.90;;;;;;;14.28;99.45;101059.91;5072794;28;20048;-71
2021/08/15 03:44:02;;;;;;;13.27;6.40;;;;;;;14.27;98.86;101048.34;5072735;28;20518;-71
2021/08/15 03:46:27;;;;;;;14.50;6.43;;;;;;;14.25;98.90;101050.34;5055890;28;20453;-71
2021/08/15 03:48:52;;;;;;;14.13;7.10;;;;;;;14.15;99.15;101049.78;5090824;28;20030;-71
2021/08/15 03:51:18;;;;;;;13.10;6.30;;;;;;;14.12;99.80;101060.88;5090569;28;20036;-71
2021/08/15 03:53:43;;;;;;;15.07;7.30;;;;;;;14.12;100.00;101059.03;5072504;28;20046;-71
2021/08/15 03:56:08;;;;;;;20.07;8.27;;;;;;;14.07;100.00;101064.09;5090216;28;20036;-71
2021/08/15 03:58:34;;;;;;;14.07;7.13;;;;;;;14.05;100.00;101065.28;5072442;28;20093;-70
2021/08/15 04:00:59;;;;;;;23.80;7.27;;;;;;;14.05;100.00;101065.28;5090414;28;20054;-70
2021/08/15 04:03:24;;;;;;;17.10;8.00;;;;;;;14.02;100.00;101060.25;5090170;28;20024;-70
2021/08/15 04:05:50;;;;;;;16.17;6.77;;;;;;;13.99;100.00;101060.63;5089943;28;20437;-70
2021/08/15 04:08:15;;;;;;;17.20;8.03;;;;;;;14.01;100.00;101066.66;5089683;28;20090;-70
2021/08/15 04:10:41;;;;;;;22.13;7.20;;;;;;;13.97;100.00;101059.94;5090395;28;20136;-70
2021/08/15 04:13:06;;;;;;;17.70;7.10;;;;;;;13.97;100.00;101060.78;5089765;28;20563;-70
2021/08/15 04:15:32;;;;;;;18.30;7.03;;;;;;;13.98;100.00;101057.09;5089919;28;20096;-69
2021/08/15 04:17:57;;;;;;;16.80;8.23;;;;;;;13.99;100.00;101060.63;5071907;28;20224;-69
2021/08/15 04:20:23;;;;;;;17.97;7.67;;;;;;;14.01;100.00;101054.06;5089529;28;20044;-69
2021/08/15 04:22:49;;;;;;;22.05;8.85;;;;;;;13.97;100.00;101046.53;5055351;28;20062;-69
2021/08/15 04:25:15;;;;;;;15.90;7.47;;;;;;;13.97;100.00;101051.91;5071833;28;20622;-69
2021/08/15 04:27:41;;;;;;;22.52;8.32;;;;;;;13.95;100.00;101054.75;5089672;28;20031;-69
2021/08/15 04:30:08;;;;;;;16.60;6.70;;;;;;;13.98;100.00;101053.56;5089751;28;20085;-69
2021/08/15 04:32:34;;;;;;;22.17;7.28;;;;;;;14.00;100.00;101049.72;5071840;28;20293;-69
2021/08/15 04:34:59;;;;;;;22.73;7.95;;;;;;;13.98;100.00;101050.88;5071647;28;20036;-69
2021/08/15 04:37:25;;;;;;;24.13;8.27;;;;;;;13.94;100.00;101053.91;5089532;28;20028;-69
2021/08/15 04:39:51;;;;;;;16.77;6.93;;;;;;;13.92;100.00;101044.38;5054957;28;20099;-70
2021/08/15 04:42:17;;;;;;;20.97;7.00;;;;;;;13.89;100.00;101061.69;5071755;28;20055;-69
2021/08/15 04:44:43;;;;;;;17.40;7.28;;;;;;;13.91;100.00;101054.28;5054549;28;20036;-69
2021/08/15 04:47:08;;;;;;;12.70;6.80;;;;;;;13.86;100.00;101051.31;5071508;28;20036;-69
2021/08/15 04:49:34;;;;;;;12.43;6.70;;;;;;;13.91;100.00;101062.34;5089321;28;20070;-69
2021/08/15 04:51:59;;;;;;;14.50;6.40;;;;;;;14.02;100.00;101076.34;5071486;28;20370;-69
2021/08/15 04:54:27;;;;;;;15.63;6.17;;;;;;;13.90;100.00;101070.56;5088940;28;20028;-69
2021/08/15 04:56:54;;;;;;;16.33;6.82;;;;;;;14.03;100.00;101070.81;5088976;28;20047;-70
2021/08/15 04:59:19;;;;;;;;;;;;;;;14.01;100.00;101080.06;5089803;28;20047;-70
2021/08/15 05:01:44;;;;;;;11.05;6.15;;;;;;;13.88;100.00;101065.38;5071317;28;20325;-69
2021/08/15 05:04:10;;;;;;;16.47;6.87;;;;;;;13.81;100.00;101069.75;5071333;28;20067;-70
2021/08/15 05:06:35;;;;;;;14.53;6.53;;;;;;;13.85;100.00;101065.72;5054152;28;20063;-70
2021/08/15 05:09:01;;;;;;;15.30;5.70;;;;;;;13.74;99.85;101068.78;5089166;28;20039;-69
2021/08/15 05:11:26;;;;;;;13.93;6.53;;;;;;;13.67;100.00;101055.25;5088835;28;20047;-69
2021/08/15 05:13:52;;;;;;;13.17;5.37;;;;;;;13.63;100.00;101045.06;5089126;28;20028;-69
2021/08/15 05:16:17;;;;;;;16.23;6.57;;;;;;;13.54;100.00;101051.47;5088548;28;20134;-69
2021/08/15 05:18:42;;;;;;;12.37;4.27;;;;;;;13.56;99.44;101054.81;5070423;28;20035;-69
2021/08/15 05:21:08;;;;;;;10.33;3.67;;;;;;;13.52;99.52;101057.81;5088379;28;20453;-69
2021/08/15 05:23:33;;;;;;;14.30;5.07;;;;;;;13.58;99.30;101055.44;5054314;28;20031;-69
2021/08/15 05:25:59;;;;;;;8.13;3.80;;;;;;;13.55;96.71;101053.13;5088246;28;20051;-69
2021/08/15 05:28:24;;;;;;;7.70;3.23;;;;;;;13.55;96.84;101050.44;5088866;28;20346;-69
2021/08/15 05:30:50;;;;;;;5.63;3.97;;;;;;;13.57;96.71;101051.94;5070775;28;20334;-69
2021/08/15 05:33:15;;;;;;;9.63;3.93;;;;;;;13.61;96.02;101045.22;5070737;28;20040;-68
2021/08/15 05:35:41;;;;;;;6.97;3.27;;;;;;;13.67;94.57;101049.91;5070734;28;20040;-68
2021/08/15 05:38:06;;;;;;;7.17;3.80;;;;;;;13.74;95.48;101052.69;5088361;28;20036;-67
2021/08/15 05:40:31;;;;;;;12.00;3.80;;;;;;;13.72;95.25;101050.19;5088785;28;20039;-68
2021/08/15 05:42:57;;;;;;;15.13;5.40;;;;;;;13.70;95.73;101057.59;5053837;28;20358;-67
2021/08/15 05:45:22;;;;;;;8.97;4.20;;;;;;;13.66;96.03;101052.75;5070577;28;20027;-68
2021/08/15 05:47:47;;;;;;;13.50;5.43;;;;;;;13.67;96.17;101055.25;5088094;28;20906;-68
2021/08/15 05:50:13;;;;;;;10.40;4.37;;;;;;;13.71;96.54;101053.88;5070694;28;20167;-68
2021/08/15 05:52:38;;;;;;;12.67;4.30;;;;;;;13.84;95.93;101058.69;5053695;28;20085;-68
2021/08/15 05:55:06;;;;;;;10.47;4.10;;;;;;;13.82;95.21;101049.16;5070599;28;20040;-68
2021/08/15 05:57:32;;;;;;;8.40;4.20;;;;;;;13.77;96.31;101052.34;5088048;28;20046;-68
2021/08/15 05:59:58;;;;;;;11.82;5.05;;;;;;;13.75;97.29;101053.53;5088100;28;20031;-68
2021/08/15 06:02:23;;;;;;;6.53;5.17;;;;;;;13.75;97.73;101058.91;5069131;28;20047;-68
2021/08/15 06:04:48;;;;;;;10.17;5.20;;;;;;;13.77;98.05;101057.72;5087477;28;20094;-67
2021/08/15 06:07:15;;;;;;;9.60;4.90;;;;;;;13.77;98.19;101049.69;5087592;28;20099;-67
2021/08/15 06:09:40;;;;;;;9.88;5.15;;;;;;;13.78;98.20;101056.69;5087699;28;20028;-68
2021/08/15 06:12:06;;;;;;;10.37;5.23;;;;;;;13.75;98.40;101062.44;5069828;28;20530;-67
2021/08/15 06:14:32;;;;;;;16.73;5.28;;;;;;;13.83;97.90;101059.69;5070028;28;20040;-68
2021/08/15 06:16:57;;;;;;;;;;;;;;;13.80;97.82;101068.09;5088428;28;20334;-68
2021/08/15 06:19:23;;;;;;;;;;;;;;;13.79;97.86;101071.81;5087365;28;19915;-68
2021/08/15 06:21:48;;;;;;;15.73;4.80;;;;;;;13.83;97.73;101062.38;5069818;28;19997;-67
2021/08/15 06:24:13;;;;;;;9.47;3.77;;;;;;;13.82;97.32;101055.34;5087172;28;20040;-68
2021/08/15 06:26:39;;;;;;;17.17;5.80;;;;;;;13.88;97.19;101067.22;5087359;28;20043;-68
2021/08/15 06:29:04;;;;;;;9.50;4.23;;;;;;;13.90;97.79;101068.69;5069705;28;20074;-68
2021/08/15 06:31:30;;;;;;;16.57;6.50;;;;;;;13.88;97.66;101060.03;5090309;28;20326;-68
2021/08/15 06:33:55;;;;;;;11.03;4.90;;;;;;;13.85;98.02;101065.72;5073395;28;20114;-68
2021/08/15 06:36:21;;;;;;;9.77;4.93;;;;;;;13.94;97.99;101061.97;5073343;28;20051;-68
2021/08/15 06:38:46;;;;;;;13.18;5.40;;;;;;;13.89;98.37;101067.03;5073203;28;20032;-68
2021/08/15 06:41:12;;;;;;;11.95;4.80;;;;;;;13.93;98.20;101062.16;5091391;28;20040;-68
2021/08/15 06:43:37;;;;;;;9.57;4.93;;;;;;;13.94;97.46;101067.34;5090883;28;20533;-68
2021/08/15 06:46:03;;;;;;;11.17;4.30;;;;;;;14.07;98.14;101068.59;5090940;28;20101;-68
2021/08/15 06:48:28;;;;;;;9.87;3.70;;;;;;;14.15;97.26;101068.56;5073969;28;20104;-68
2021/08/15 06:50:57;;;;;;;12.13;5.13;;;;;;;14.30;96.80;101064.06;5073705;28;20460;-68
2021/08/15 06:53:23;;;;;;;9.40;4.60;;;;;;;14.41;96.58;101064.69;5090995;28;20112;-68
2021/08/15 06:55:49;;;;;;;12.30;3.85;;;;;;;14.35;96.83;101061.72;5072700;28;20044;-68
2021/08/15 06:58:15;;;;;;;11.18;4.10;;;;;;;14.35;96.23;101067.09;5091643;28;20373;-68
2021/08/15 07:00:41;;;;;;;;;;;;;;;14.31;95.73;101060.41;5074260;28;20098;-68
2021/08/15 07:03:07;;;;;;;10.57;4.60;;;;;;;14.34;95.60;101065.41;5091578;28;19920;-68
2021/08/15 07:05:33;;;;;;;9.65;3.67;;;;;;;14.44;96.72;101065.16;5073415;28;20374;-68
2021/08/15 07:07:58;;;;;;;10.10;3.88;;;;;;;14.61;94.97;101054.28;5091324;28;20135;-68
2021/08/15 07:10:24;;;;;;;5.63;3.80;;;;;;;14.59;94.75;101061.72;5073526;28;20052;-68
2021/08/15 07:12:53;;;;;;;10.35;4.00;;;;;;;14.64;94.49;101062.84;5056820;28;20031;-68
2021/08/15 07:15:20;;;;;;;9.18;3.97;;;;;;;14.57;94.42;101065.41;5090975;28;20457;-68
2021/08/15 07:17:46;;;;;;;9.70;3.72;;;;;;;14.77;94.57;101071.13;5090994;28;20078;-68
2021/08/15 07:20:12;;;;;;;8.88;4.22;;;;;;;14.71;93.53;101066.47;5073329;28;20052;-68
2021/08/15 07:22:38;;;;;;;7.10;3.70;;;;;;;14.59;93.38;101067.09;5073135;28;20043;-68
2021/08/15 07:25:04;;;;;;;6.20;4.18;;;;;;;14.60;93.58;101066.91;5091057;28;20043;-68
2021/08/15 07:27:30;;;;;;;11.95;4.22;;;;;;;14.74;93.66;101076.03;5056155;28;20027;-68
2021/08/15 07:29:55;;;;;;;8.48;4.60;;;;;;;14.78;93.66;101078.16;5091175;28;20457;-68
2021/08/15 07:32:21;;;;;;;13.73;4.83;;;;;;;14.76;94.28;101064.06;5056492;28;20032;-68
2021/08/15 07:34:46;;;;;;;8.37;4.13;;;;;;;14.87;94.25;101070.03;5091056;28;20483;-68
2021/08/15 07:37:12;;;;;;;12.20;4.37;;;;;;;14.94;94.79;101076.34;5072863;28;20028;-68
2021/08/15 07:39:37;;;;;;;8.47;4.43;;;;;;;15.05;93.33;101077.75;5073394;28;20132;-68
2021/08/15 07:42:03;;;;;;;6.67;3.70;;;;;;;15.08;93.00;101067.47;5089778;28;20435;-68
2021/08/15 07:44:28;;;;;;;11.73;4.13;;;;;;;15.07;93.14;101070.34;5056366;28;20093;-68
2021/08/15 07:46:56;;;;;;;7.23;3.97;;;;;;;15.28;92.64;101064.22;5072670;28;20051;-68
2021/08/15 07:49:22;;;;;;;7.55;3.72;;;;;;;15.46;91.87;101053.91;5073144;28;20032;-68
2021/08/15 07:51:47;;;;;;;10.33;3.63;;;;;;;15.39;91.59;101059.22;5056004;28;20110;-68
2021/08/15 07:54:13;;;;;;;7.23;4.07;;;;;;;15.74;90.56;101061.34;5072909;28;20202;-68
2021/08/15 07:56:38;;;;;;;8.37;3.63;;;;;;;16.43;89.51;101058.13;5090365;28;20032;-68
2021/08/15 07:59:04;;;;;;;10.63;3.37;;;;;;;16.69;85.31;101057.50;5090596;28;20040;-68
2021/08/15 08:01:29;;;;;;;10.17;4.57;;;;;;;16.67;86.93;101057.72;5056086;28;20032;-68
2021/08/15 08:03:54;;;;;;;5.93;3.60;;;;;;;16.08;88.32;101057.16;5090329;28;20115;-68
2021/08/15 08:06:20;;;;;;;8.10;4.07;;;;;;;15.96;87.84;101060.34;5072466;28;20036;-68
2021/08/15 08:08:45;;;;;;;5.03;3.10;;;;;;;15.74;88.94;101067.56;5090335;28;20135;-69
2021/08/15 08:11:10;;;;;;;4.50;3.33;;;;;;;15.87;89.60;101069.56;5072444;28;20035;-69
2021/08/15 08:13:36;;;;;;;5.10;3.33;;;;;;;15.76;89.40;101070.06;5090263;28;20032;-69
2021/08/15 08:16:01;;;;;;;11.63;4.60;;;;;;;15.83;90.42;101060.22;5072095;28;20048;-69
2021/08/15 08:18:27;;;;;;;9.93;3.58;;;;;;;16.07;88.89;101066.28;5072345;28;20027;-68
2021/08/15 08:20:53;;;;;;;9.80;4.40;;;;;;;16.12;88.45;101066.53;5090129;28;20834;-69
2021/08/15 08:23:18;;;;;;;6.95;3.60;;;;;;;16.54;85.97;101062.16;5071999;28;20043;-69
2021/08/15 08:25:45;;;;;;;9.55;3.50;;;;;;;16.81;84.73;101053.28;5089864;28;20039;-69
2021/08/15 08:28:12;;;;;;;7.47;3.50;;;;;;;16.49;85.31;101064.59;5055405;28;20027;-69
2021/08/15 08:30:37;;;;;;;;;;;;;;;16.40;86.02;101059.34;5090376;28;20040;-69
2021/08/15 08:33:03;;;;;;;;;;;;;;;16.55;85.51;101058.44;5090331;28;19980;-69
2021/08/15 08:35:28;;;;;;;5.38;3.67;;;;;;;16.63;86.10;101061.81;5071772;28;19947;-69
2021/08/15 08:37:54;;;;;;;5.23;3.13;;;;;;;16.62;84.92;101056.63;5071727;28;20172;-69
2021/08/15 08:40:20;;;;;;;7.17;2.93;;;;;;;16.59;86.66;101052.44;5089770;28;20039;-69
2021/08/15 08:42:47;;;;;;;5.53;3.42;;;;;;;16.69;86.06;101049.41;5089495;28;20053;-69
2021/08/15 08:45:17;;;;;;;8.32;3.20;;;;;;;17.14;83.50;101036.50;5071417;28;20645;-69
2021/08/15 08:47:42;;;;;;;7.47;4.00;;;;;;;17.03;82.87;101034.34;5071504;28;20035;-69
2021/08/15 08:50:09;;;;;;;10.53;3.37;;;;;;;17.33;82.22;101044.91;5089387;28;20031;-69
2021/08/15 08:52:34;;;;;;;5.63;2.83;;;;;;;17.47;81.55;101049.34;5089331;28;20076;-69
2021/08/15 08:55:02;;;;;;;5.70;3.03;;;;;;;17.65;80.91;101046.06;5088076;28;20074;-69
2021/08/15 08:57:28;;;;;;;5.72;2.90;;;;;;;17.37;80.69;101038.06;5089233;28;20266;-69
2021/08/15 08:59:53;;;;;;;7.63;4.05;;;;;;;17.52;80.38;101038.75;5089178;28;20464;-69
2021/08/15 09:02:19;;;;;;;7.00;2.78;;;;;;;17.51;79.41;101032.53;5089183;28;20044;-69
2021/08/15 09:04:45;;;;;;;5.53;2.80;;;;;;;17.49;79.67;101033.78;5088882;28;20024;-69
2021/08/15 09:07:15;;;;;;;10.27;3.28;;;;;;;18.59;75.59;101037.16;5054640;28;20028;-69
2021/08/15 09:09:54;;;;;;;10.10;3.72;;;;;;;18.55;76.45;101039.44;5071112;28;20036;-68
2021/08/15 09:12:20;;;;;;;7.38;3.85;;;;;;;18.18;76.56;101040.03;5071269;28;20036;-69
2021/08/15 09:14:45;;;;;;;12.53;3.27;;;;;;;17.85;77.38;101021.88;5071118;28;20020;-69
2021/08/15 09:17:11;;;;;;;5.88;3.17;;;;;;;17.91;77.24;101032.69;5070899;28;20415;-69
2021/08/15 09:19:44;;;;;;;7.18;4.00;;;;;;;18.04;77.75;101025.66;5071013;28;20047;-69
2021/08/15 09:22:26;;;;;;;6.60;3.13;;;;;;;18.12;76.40;101034.41;5088656;28;20035;-69
2021/08/15 09:25:21;;;;;;;6.57;3.22;;;;;;;18.64;76.16;101036.53;5070994;28;20176;-69
2021/08/15 09:27:55;;;;;;;6.18;3.05;;;;;;;18.17;77.93;101024.84;5088650;28;20052;-69
2021/08/15 09:30:23;;;;;;;5.57;2.40;;;;;;;18.45;77.27;101028.22;5071055;28;20096;-69
2021/08/15 09:32:53;;;;;;;5.95;2.88;;;;;;;18.10;77.20;101022.97;5088584;28;20524;-69
2021/08/15 09:35:30;;;;;;;7.07;2.92;;;;;;;18.74;74.25;101018.00;5088662;28;20081;-69
2021/08/15 09:38:05;;;;;;;11.85;3.83;;;;;;;19.54;72.73;101023.22;5070279;28;20028;-69
2021/08/15 09:40:41;;;;;;;8.40;3.28;;;;;;;18.56;74.06;101019.44;5071180;28;20496;-69
2021/08/15 09:43:10;;;;;;;5.10;2.85;;;;;;;18.97;75.45;101015.69;5070380;28;20097;-69
2021/08/15 09:45:50;;;;;;;7.00;2.88;;;;;;;19.00;73.79;101016.31;5070737;28;20107;-69
2021/08/15 09:48:24;;;;;;;5.85;3.03;;;;;;;20.37;68.37;101014.19;5088552;28;20032;-69
2021/08/15 09:51:07;;;;;;;6.85;2.80;;;;;;;20.61;69.74;101010.69;5070924;28;20129;-69
2021/08/15 09:53:34;;;;;;;7.93;2.85;;;;;;;20.56;69.94;101009.69;5070613;28;20050;-69
2021/08/15 09:56:00;;;;;;;8.30;2.92;;;;;;;20.36;66.97;100997.09;5070517;28;20034;-69
2021/08/15 09:58:26;;;;;;;5.32;2.38;;;;;;;20.64;67.69;100996.66;5070380;28;20032;-69
2021/08/15 10:00:52;;;;;;;5.20;2.80;;;;;;;20.65;65.92;101001.06;5088661;28;20036;-70
2021/08/15 10:03:17;;;;;;;3.85;2.35;;;;;;;20.68;67.10;100998.94;5088198;28;20036;-70
2021/08/15 10:05:43;;;;;;;7.50;3.73;;;;;;;20.91;68.27;100996.41;5087841;28;20032;-70
2021/08/15 10:08:09;;;;;;;4.55;2.33;;;;;;;21.93;65.47;100999.31;5070395;28;20282;-70
2021/08/15 10:10:38;;;;;;;7.20;2.38;;;;;;;20.41;66.90;100986.41;5088665;28;20058;-70
2021/08/15 10:13:04;;;;;;;7.07;3.05;;;;;;;20.62;67.35;100993.34;5087947;28;20044;-70
2021/08/15 10:15:32;;;;;;;7.45;2.50;;;;;;;20.58;66.94;100994.88;5088328;28;20054;-70
2021/08/15 10:17:59;;;;;;;8.75;3.55;;;;;;;20.47;68.04;100992.03;5088078;28;20020;-70
2021/08/15 10:20:28;;;;;;;7.28;2.90;;;;;;;20.79;66.02;100988.19;5088069;28;20048;-70
2021/08/15 10:23:05;;;;;;;5.22;3.00;;;;;;;21.14;63.12;100993.03;5088142;28;20119;-70
2021/08/15 10:25:38;;;;;;;8.48;3.70;;;;;;;20.01;66.31;100983.19;5088302;28;20060;-70
2021/08/15 10:28:05;;;;;;;8.23;3.30;;;;;;;19.93;66.60;100980.75;5087886;28;20052;-70
2021/08/15 10:30:30;;;;;;;8.48;3.10;;;;;;;19.76;67.54;100975.00;5054089;28;20091;-70
2021/08/15 10:32:55;;;;;;;6.83;2.53;;;;;;;19.68;68.49;100981.50;5088234;28;20480;-70
2021/08/15 10:35:31;;;;;;;6.57;2.97;;;;;;;19.08;69.68;100978.19;5053600;28;20071;-70
2021/08/15 10:38:26;;;;;;;;;;;;;;;19.66;69.19;100985.47;5088469;28;20031;-70
2021/08/15 10:40:51;;;;;;;6.63;2.80;;;;;;;20.29;64.75;100977.34;5087779;28;19912;-70
2021/08/15 10:43:22;;;;;;;6.23;3.00;;;;;;;21.54;64.65;100976.28;5087797;28;20051;-70
2021/08/15 10:46:23;;;;;;;7.25;2.75;;;;;;;22.05;63.83;100980.31;5069889;28;20040;-70
2021/08/15 10:49:06;;;;;;;6.30;2.78;;;;;;;22.05;63.00;100974.06;5070215;28;20480;-70
2021/08/15 10:51:51;;;;;;;6.68;2.45;;;;;;;23.59;56.51;100979.19;5070282;28;20044;-70
2021/08/15 10:54:25;;;;;;;6.53;2.13;;;;;;;22.19;60.34;100967.34;5087657;28;20517;-70
2021/08/15 10:57:04;;;;;;;6.30;2.65;;;;;;;21.97;60.24;100971.69;5087849;28;20472;-70
2021/08/15 10:59:34;;;;;;;3.85;2.30;;;;;;;22.31;60.64;100968.25;5070279;28;20044;-70
2021/08/15 11:02:14;;;;;;;4.50;2.17;;;;;;;21.66;60.34;100962.75;5088026;28;20119;-70
2021/08/15 11:04:54;;;;;;;5.28;1.90;;;;;;;22.12;59.29;100956.59;5069816;28;20467;-70
2021/08/15 11:07:40;;;;;;;6.20;2.30;;;;;;;22.00;59.24;100953.00;5070131;28;20123;-70
2021/08/15 11:10:12;;;;;;;7.05;2.63;;;;;;;22.32;57.76;100947.31;5087804;28;20039;-71
2021/08/15 11:13:12;;;;;;;5.03;2.63;;;;;;;21.86;60.52;100946.94;5087766;28;20032;-71
2021/08/15 11:15:37;;;;;;;4.65;2.22;;;;;;;21.15;61.12;100950.44;5052965;28;20453;-71
2021/08/15 11:18:14;;;;;;;3.40;2.17;;;;;;;21.23;60.63;100947.38;5072021;28;20050;-70
2021/08/15 11:20:47;;;;;;;5.63;2.10;;;;;;;21.10;61.32;100953.81;5091097;28;20114;-71
2021/08/15 11:23:15;;;;;;;5.25;2.38;;;;;;;21.08;60.44;100940.47;5073391;28;20097;-70